sensor_id;sensor_type;location;lat;lon;timestamp;pressure;altitude;pressure_sealevel;temperature;humidity
9423;BME280;4750;49.506;10.400;2022-10-15T00:02:31;97361.19;;;13.05;97.45
9423;BME280;4750;49.506;10.400;2022-10-15T00:05:15;97375.81;;;13.21;97.59
9423;BME280;4750;49.506;10.400;2022-10-15T00:07:59;97353.81;;;13.10;97.60
9423;BME280;4750;49.506;10.400;2022-10-15T00:10:43;97375.38;;;13.25;97.69
9423;BME280;4750;49.506;10.400;2022-10-15T00:13:27;97340.16;;;13.06;97.45
9423;BME280;4750;49.506;10.400;2022-10-15T00:16:14;97358.47;;;13.25;97.47
9423;BME280;4750;49.506;10.400;2022-10-15T00:18:58;97361.13;;;13.23;97.46
9423;BME280;4750;49.506;10.400;2022-10-15T00:21:42;97350.78;;;13.25;97.59
9423;BME280;4750;49.506;10.400;2022-10-15T00:24:26;97342.59;;;13.20;97.70
9423;BME280;4750;49.506;10.400;2022-10-15T00:27:10;97333.97;;;13.18;97.43
9423;BME280;4750;49.506;10.400;2022-10-15T00:29:55;97327.88;;;13.12;97.53
9423;BME280;4750;49.506;10.400;2022-10-15T00:32:42;97338.00;;;13.24;97.62
9423;BME280;4750;49.506;10.400;2022-10-15T00:35:26;97320.00;;;13.10;97.42
9423;BME280;4750;49.506;10.400;2022-10-15T00:38:11;97338.88;;;13.17;97.70
9423;BME280;4750;49.506;10.400;2022-10-15T00:40:56;97312.88;;;13.09;97.92
9423;BME280;4750;49.506;10.400;2022-10-15T00:43:44;97343.03;;;13.26;97.92
9423;BME280;4750;49.506;10.400;2022-10-15T00:46:39;97329.81;;;13.19;97.95
9423;BME280;4750;49.506;10.400;2022-10-15T00:49:30;97337.88;;;13.32;98.05
9423;BME280;4750;49.506;10.400;2022-10-15T00:52:21;97332.50;;;13.26;98.25
9423;BME280;4750;49.506;10.400;2022-10-15T00:58:00;97299.25;;;13.15;97.89
9423;BME280;4750;49.506;10.400;2022-10-15T01:00:45;97303.28;;;13.22;98.00
9423;BME280;4750;49.506;10.400;2022-10-15T01:03:29;97300.47;;;13.22;98.08
9423;BME280;4750;49.506;10.400;2022-10-15T01:06:13;97293.34;;;13.21;98.18
9423;BME280;4750;49.506;10.400;2022-10-15T01:08:59;97294.81;;;13.22;98.13
9423;BME280;4750;49.506;10.400;2022-10-15T01:11:49;97293.19;;;13.19;97.94
9423;BME280;4750;49.506;10.400;2022-10-15T01:15:01;97312.50;;;13.32;98.19
9423;BME280;4750;49.506;10.400;2022-10-15T01:24:17;97276.88;;;13.17;98.42
9423;BME280;4750;49.506;10.400;2022-10-15T01:30:33;97284.00;;;13.28;98.39
9423;BME280;4750;49.506;10.400;2022-10-15T01:33:26;97284.16;;;13.30;98.53
9423;BME280;4750;49.506;10.400;2022-10-15T01:36:18;97260.56;;;13.16;98.59
9423;BME280;4750;49.506;10.400;2022-10-15T01:42:12;97283.72;;;13.34;98.70
9423;BME280;4750;49.506;10.400;2022-10-15T01:45:03;97260.72;;;13.27;98.76
9423;BME280;4750;49.506;10.400;2022-10-15T01:48:04;97269.97;;;13.48;98.90
9423;BME280;4750;49.506;10.400;2022-10-15T01:50:52;97274.88;;;13.47;98.73
9423;BME280;4750;49.506;10.400;2022-10-15T01:53:39;97265.50;;;13.35;98.79
9423;BME280;4750;49.506;10.400;2022-10-15T01:56:25;97262.69;;;13.35;98.71
9423;BME280;4750;49.506;10.400;2022-10-15T01:59:10;97266.81;;;13.34;98.72
9423;BME280;4750;49.506;10.400;2022-10-15T02:01:54;97253.66;;;13.36;98.93
9423;BME280;4750;49.506;10.400;2022-10-15T02:04:38;97226.28;;;13.09;98.73
9423;BME280;4750;49.506;10.400;2022-10-15T02:07:40;97251.00;;;13.38;98.96
9423;BME280;4750;49.506;10.400;2022-10-15T02:13:37;97260.03;;;13.47;99.01
9423;BME280;4750;49.506;10.400;2022-10-15T02:16:44;97252.03;;;13.43;99.10
9423;BME280;4750;49.506;10.400;2022-10-15T02:20:14;97254.69;;;13.41;99.06
9423;BME280;4750;49.506;10.400;2022-10-15T02:22:56;97232.97;;;13.24;99.22
9423;BME280;4750;49.506;10.400;2022-10-15T02:25:46;97205.69;;;13.07;99.13
9423;BME280;4750;49.506;10.400;2022-10-15T02:28:31;97241.13;;;13.30;99.24
9423;BME280;4750;49.506;10.400;2022-10-15T02:31:18;97252.63;;;13.41;99.44
9423;BME280;4750;49.506;10.400;2022-10-15T02:34:05;97242.69;;;13.40;99.69
9423;BME280;4750;49.506;10.400;2022-10-15T02:36:56;97229.03;;;13.47;99.61
9423;BME280;4750;49.506;10.400;2022-10-15T02:39:41;97246.84;;;13.49;99.52
9423;BME280;4750;49.506;10.400;2022-10-15T02:42:25;97239.56;;;13.46;99.38
9423;BME280;4750;49.506;10.400;2022-10-15T02:45:09;97204.66;;;13.22;99.24
9423;BME280;4750;49.506;10.400;2022-10-15T02:47:53;97220.84;;;13.41;99.38
9423;BME280;4750;49.506;10.400;2022-10-15T02:50:37;97227.84;;;13.50;99.98
9423;BME280;4750;49.506;10.400;2022-10-15T02:53:21;97202.19;;;13.46;99.55
9423;BME280;4750;49.506;10.400;2022-10-15T02:56:05;97207.22;;;13.37;99.46
9423;BME280;4750;49.506;10.400;2022-10-15T02:58:50;97207.34;;;13.39;99.62
9423;BME280;4750;49.506;10.400;2022-10-15T03:01:36;97221.63;;;13.41;99.65
9423;BME280;4750;49.506;10.400;2022-10-15T03:04:21;97214.78;;;13.45;99.57
9423;BME280;4750;49.506;10.400;2022-10-15T03:07:05;97225.47;;;13.56;99.72
9423;BME280;4750;49.506;10.400;2022-10-15T03:09:49;97191.63;;;13.36;99.71
9423;BME280;4750;49.506;10.400;2022-10-15T03:12:33;97214.63;;;13.52;99.85
9423;BME280;4750;49.506;10.400;2022-10-15T03:15:18;97205.00;;;13.46;99.77
9423;BME280;4750;49.506;10.400;2022-10-15T03:18:03;97204.13;;;13.53;100.00
9423;BME280;4750;49.506;10.400;2022-10-15T03:20:54;97215.22;;;13.60;99.83
9423;BME280;4750;49.506;10.400;2022-10-15T03:23:39;97194.44;;;13.36;99.90
9423;BME280;4750;49.506;10.400;2022-10-15T03:26:43;97198.16;;;13.39;99.80
9423;BME280;4750;49.506;10.400;2022-10-15T03:29:27;97203.94;;;13.51;99.91
9423;BME280;4750;49.506;10.400;2022-10-15T03:32:17;97215.69;;;13.57;99.92
9423;BME280;4750;49.506;10.400;2022-10-15T03:35:02;97217.91;;;13.58;99.98
9423;BME280;4750;49.506;10.400;2022-10-15T03:37:46;97196.84;;;13.50;99.88
9423;BME280;4750;49.506;10.400;2022-10-15T03:40:30;97231.41;;;13.70;99.97
9423;BME280;4750;49.506;10.400;2022-10-15T03:43:26;97232.75;;;13.69;100.00
9423;BME280;4750;49.506;10.400;2022-10-15T03:46:10;97210.47;;;13.53;99.86
9423;BME280;4750;49.506;10.400;2022-10-15T03:49:00;97216.28;;;13.65;99.84
9423;BME280;4750;49.506;10.400;2022-10-15T03:51:44;97223.25;;;13.74;100.00
9423;BME280;4750;49.506;10.400;2022-10-15T03:54:29;97219.38;;;13.69;100.00
9423;BME280;4750;49.506;10.400;2022-10-15T03:57:13;97216.56;;;13.69;99.88
9423;BME280;4750;49.506;10.400;2022-10-15T04:00:05;97233.16;;;13.85;99.87
9423;BME280;4750;49.506;10.400;2022-10-15T04:02:55;97197.56;;;13.60;99.76
9423;BME280;4750;49.506;10.400;2022-10-15T04:05:49;97220.88;;;13.70;99.77
9423;BME280;4750;49.506;10.400;2022-10-15T04:08:34;97200.53;;;13.62;99.91
9423;BME280;4750;49.506;10.400;2022-10-15T04:11:24;97230.53;;;13.67;99.82
9423;BME280;4750;49.506;10.400;2022-10-15T04:14:20;97232.00;;;13.68;99.64
9423;BME280;4750;49.506;10.400;2022-10-15T04:17:04;97229.31;;;13.70;99.84
9423;BME280;4750;49.506;10.400;2022-10-15T04:19:49;97235.44;;;13.76;99.96
9423;BME280;4750;49.506;10.400;2022-10-15T04:22:32;97221.94;;;13.65;100.00
9423;BME280;4750;49.506;10.400;2022-10-15T04:25:19;97221.63;;;13.61;100.00
9423;BME280;4750;49.506;10.400;2022-10-15T04:28:04;97218.34;;;13.55;99.89
9423;BME280;4750;49.506;10.400;2022-10-15T04:30:49;97216.72;;;13.52;100.00
9423;BME280;4750;49.506;10.400;2022-10-15T04:33:37;97222.97;;;13.60;100.00
9423;BME280;4750;49.506;10.400;2022-10-15T04:36:21;97224.88;;;13.67;100.00
9423;BME280;4750;49.506;10.400;2022-10-15T04:39:13;97245.66;;;13.72;100.00
9423;BME280;4750;49.506;10.400;2022-10-15T04:41:59;97226.97;;;13.67;100.00
9423;BME280;4750;49.506;10.400;2022-10-15T04:44:47;97228.13;;;13.64;100.00
9423;BME280;4750;49.506;10.400;2022-10-15T04:47:31;97250.25;;;13.87;100.00
9423;BME280;4750;49.506;10.400;2022-10-15T04:50:25;97240.19;;;13.74;100.00
9423;BME280;4750;49.506;10.400;2022-10-15T04:53:29;97236.59;;;13.83;100.00
9423;BME280;4750;49.506;10.400;2022-10-15T04:56:16;97238.69;;;13.73;100.00
9423;BME280;4750;49.506;10.400;2022-10-15T04:59:01;97253.38;;;13.91;100.00
9423;BME280;4750;49.506;10.400;2022-10-15T05:01:48;97213.91;;;13.71;100.00
9423;BME280;4750;49.506;10.400;2022-10-15T05:04:32;97234.38;;;13.82;100.00
9423;BME280;4750;49.506;10.400;2022-10-15T05:07:16;97245.66;;;13.91;100.00
9423;BME280;4750;49.506;10.400;2022-10-15T05:10:01;97238.53;;;13.81;100.00
9423;BME280;4750;49.506;10.400;2022-10-15T05:12:46;97235.69;;;13.81;100.00
9423;BME280;4750;49.506;10.400;2022-10-15T05:15:31;97237.47;;;13.86;100.00
9423;BME280;4750;49.506;10.400;2022-10-15T05:18:15;97252.63;;;13.90;100.00
9423;BME280;4750;49.506;10.400;2022-10-15T05:21:07;97259.88;;;14.03;100.00
9423;BME280;4750;49.506;10.400;2022-10-15T05:23:52;97252.19;;;13.94;100.00
9423;BME280;4750;49.506;10.400;2022-10-15T05:26:56;97274.44;;;14.09;100.00
9423;BME280;4750;49.506;10.400;2022-10-15T05:29:41;97246.25;;;13.80;100.00
9423;BME280;4750;49.506;10.400;2022-10-15T05:32:27;97266.88;;;14.02;100.00
9423;BME280;4750;49.506;10.400;2022-10-15T05:35:11;97266.59;;;13.98;100.00
9423;BME280;4750;49.506;10.400;2022-10-15T05:38:24;97263.59;;;13.96;100.00
9423;BME280;4750;49.506;10.400;2022-10-15T05:41:08;97263.31;;;13.92;100.00
9423;BME280;4750;49.506;10.400;2022-10-15T05:43:55;97293.16;;;14.05;100.00
9423;BME280;4750;49.506;10.400;2022-10-15T05:46:43;97260.47;;;13.92;100.00
9423;BME280;4750;49.506;10.400;2022-10-15T05:49:31;97273.97;;;14.03;100.00
9423;BME280;4750;49.506;10.400;2022-10-15T05:52:26;97294.63;;;14.16;100.00
9423;BME280;4750;49.506;10.400;2022-10-15T05:55:29;97295.50;;;14.18;100.00
9423;BME280;4750;49.506;10.400;2022-10-15T05:58:14;97278.47;;;14.06;100.00
9423;BME280;4750;49.506;10.400;2022-10-15T06:01:00;97280.22;;;14.11;100.00
9423;BME280;4750;49.506;10.400;2022-10-15T06:03:44;97290.19;;;14.12;100.00
9423;BME280;4750;49.506;10.400;2022-10-15T06:06:30;97291.97;;;14.18;100.00
9423;BME280;4750;49.506;10.400;2022-10-15T06:09:14;97296.84;;;14.27;100.00
9423;BME280;4750;49.506;10.400;2022-10-15T06:11:58;97313.63;;;14.44;100.00
9423;BME280;4750;49.506;10.400;2022-10-15T06:14:42;97286.59;;;14.22;100.00
9423;BME280;4750;49.506;10.400;2022-10-15T06:17:26;97296.09;;;14.36;100.00
9423;BME280;4750;49.506;10.400;2022-10-15T06:20:11;97324.13;;;14.54;100.00
9423;BME280;4750;49.506;10.400;2022-10-15T06:22:58;97296.41;;;14.31;100.00
9423;BME280;4750;49.506;10.400;2022-10-15T06:25:43;97274.44;;;14.19;100.00
9423;BME280;4750;49.506;10.400;2022-10-15T06:28:29;97295.94;;;14.34;100.00
9423;BME280;4750;49.506;10.400;2022-10-15T06:31:14;97314.78;;;14.41;100.00
9423;BME280;4750;49.506;10.400;2022-10-15T06:34:00;97324.44;;;14.48;100.00
9423;BME280;4750;49.506;10.400;2022-10-15T06:36:47;97297.41;;;14.35;100.00
9423;BME280;4750;49.506;10.400;2022-10-15T06:39:33;97302.47;;;14.37;100.00
9423;BME280;4750;49.506;10.400;2022-10-15T06:42:18;97338.44;;;14.46;100.00
9423;BME280;4750;49.506;10.400;2022-10-15T06:45:05;97354.00;;;14.67;100.00
9423;BME280;4750;49.506;10.400;2022-10-15T06:47:49;97357.44;;;14.65;100.00
9423;BME280;4750;49.506;10.400;2022-10-15T06:50:34;97363.38;;;14.69;100.00
9423;BME280;4750;49.506;10.400;2022-10-15T06:53:19;97362.31;;;14.74;100.00
9423;BME280;4750;49.506;10.400;2022-10-15T06:56:03;97375.66;;;14.84;100.00
9423;BME280;4750;49.506;10.400;2022-10-15T06:58:53;97343.88;;;14.73;100.00
9423;BME280;4750;49.506;10.400;2022-10-15T07:01:37;97365.88;;;14.85;100.00
9423;BME280;4750;49.506;10.400;2022-10-15T07:04:22;97391.84;;;15.03;100.00
9423;BME280;4750;49.506;10.400;2022-10-15T07:07:05;97385.72;;;15.06;100.00
9423;BME280;4750;49.506;10.400;2022-10-15T07:09:49;97381.84;;;15.11;100.00
9423;BME280;4750;49.506;10.400;2022-10-15T07:12:36;97383.06;;;15.08;100.00
9423;BME280;4750;49.506;10.400;2022-10-15T07:15:20;97386.00;;;15.10;100.00
9423;BME280;4750;49.506;10.400;2022-10-15T07:18:05;97379.03;;;15.11;100.00
9423;BME280;4750;49.506;10.400;2022-10-15T07:20:49;97401.00;;;15.23;100.00
9423;BME280;4750;49.506;10.400;2022-10-15T07:23:33;97371.16;;;15.00;100.00
9423;BME280;4750;49.506;10.400;2022-10-15T07:26:17;97406.78;;;15.25;100.00
9423;BME280;4750;49.506;10.400;2022-10-15T07:29:02;97409.28;;;15.30;100.00
9423;BME280;4750;49.506;10.400;2022-10-15T07:31:46;97417.91;;;15.32;100.00
9423;BME280;4750;49.506;10.400;2022-10-15T07:34:33;97419.28;;;15.22;100.00
9423;BME280;4750;49.506;10.400;2022-10-15T07:37:17;97424.44;;;15.35;100.00
9423;BME280;4750;49.506;10.400;2022-10-15T07:40:00;97409.03;;;15.17;100.00
9423;BME280;4750;49.506;10.400;2022-10-15T07:42:51;97416.34;;;15.20;100.00
9423;BME280;4750;49.506;10.400;2022-10-15T07:45:35;97394.34;;;15.08;100.00
9423;BME280;4750;49.506;10.400;2022-10-15T07:48:19;97430.78;;;15.14;100.00
9423;BME280;4750;49.506;10.400;2022-10-15T07:51:05;97424.84;;;15.10;100.00
9423;BME280;4750;49.506;10.400;2022-10-15T07:53:49;97463.31;;;15.25;100.00
9423;BME280;4750;49.506;10.400;2022-10-15T07:56:33;97452.22;;;15.07;100.00
9423;BME280;4750;49.506;10.400;2022-10-15T07:59:17;97447.00;;;15.04;100.00
9423;BME280;4750;49.506;10.400;2022-10-15T08:02:02;97438.00;;;14.86;100.00
9423;BME280;4750;49.506;10.400;2022-10-15T08:04:45;97459.50;;;15.10;99.98
9423;BME280;4750;49.506;10.400;2022-10-15T08:07:30;97452.50;;;15.11;99.99
9423;BME280;4750;49.506;10.400;2022-10-15T08:10:14;97477.91;;;15.31;99.85
9423;BME280;4750;49.506;10.400;2022-10-15T08:12:58;97455.91;;;15.20;99.62
9423;BME280;4750;49.506;10.400;2022-10-15T08:15:42;97477.84;;;15.41;99.33
9423;BME280;4750;49.506;10.400;2022-10-15T08:18:26;97462.41;;;15.32;99.15
9423;BME280;4750;49.506;10.400;2022-10-15T08:21:11;97481.88;;;15.38;98.67
9423;BME280;4750;49.506;10.400;2022-10-15T08:23:55;97456.78;;;15.22;98.27
9423;BME280;4750;49.506;10.400;2022-10-15T08:26:50;97479.84;;;15.28;98.03
9423;BME280;4750;49.506;10.400;2022-10-15T08:29:34;97456.66;;;15.10;97.63
9423;BME280;4750;49.506;10.400;2022-10-15T08:32:17;97492.19;;;15.23;97.65
9423;BME280;4750;49.506;10.400;2022-10-15T08:35:02;97490.38;;;15.28;97.26
9423;BME280;4750;49.506;10.400;2022-10-15T08:37:53;97501.25;;;15.31;97.06
9423;BME280;4750;49.506;10.400;2022-10-15T08:40:37;97488.03;;;15.14;97.18
9423;BME280;4750;49.506;10.400;2022-10-15T08:43:34;97507.81;;;15.34;97.02
9423;BME280;4750;49.506;10.400;2022-10-15T08:46:31;97508.13;;;15.28;96.74
9423;BME280;4750;49.506;10.400;2022-10-15T08:49:48;97518.19;;;15.41;96.89
9423;BME280;4750;49.506;10.400;2022-10-15T08:52:45;97493.66;;;15.34;96.76
9423;BME280;4750;49.506;10.400;2022-10-15T08:55:35;97533.34;;;15.46;96.56
9423;BME280;4750;49.506;10.400;2022-10-15T08:58:41;97513.97;;;15.52;96.39
9423;BME280;4750;49.506;10.400;2022-10-15T09:01:33;97517.69;;;15.55;96.16
9423;BME280;4750;49.506;10.400;2022-10-15T09:04:34;97514.22;;;15.66;95.89
9423;BME280;4750;49.506;10.400;2022-10-15T09:10:43;97503.94;;;15.80;95.71
9423;BME280;4750;49.506;10.400;2022-10-15T09:13:36;97531.22;;;16.07;95.75
9423;BME280;4750;49.506;10.400;2022-10-15T09:16:32;97509.22;;;15.96;95.38
9423;BME280;4750;49.506;10.400;2022-10-15T09:19:22;97535.38;;;16.38;95.26
9423;BME280;4750;49.506;10.400;2022-10-15T09:22:11;97518.50;;;16.40;94.82
9423;BME280;4750;49.506;10.400;2022-10-15T09:24:57;97543.16;;;16.59;94.14
9423;BME280;4750;49.506;10.400;2022-10-15T09:27:41;97542.78;;;16.86;93.64
9423;BME280;4750;49.506;10.400;2022-10-15T09:30:45;97543.22;;;16.92;92.93
9423;BME280;4750;49.506;10.400;2022-10-15T09:33:38;97549.09;;;16.63;92.08
9423;BME280;4750;49.506;10.400;2022-10-15T09:36:32;97548.00;;;16.46;91.81
9423;BME280;4750;49.506;10.400;2022-10-15T09:39:31;97554.94;;;16.33;91.73
9423;BME280;4750;49.506;10.400;2022-10-15T09:42:30;97552.56;;;16.30;92.16
9423;BME280;4750;49.506;10.400;2022-10-15T09:45:16;97564.63;;;16.30;92.20
9423;BME280;4750;49.506;10.400;2022-10-15T09:48:00;97547.81;;;16.23;92.25
9423;BME280;4750;49.506;10.400;2022-10-15T09:51:00;97566.38;;;16.35;92.15
9423;BME280;4750;49.506;10.400;2022-10-15T09:53:54;97553.03;;;16.26;91.98
9423;BME280;4750;49.506;10.400;2022-10-15T09:56:47;97545.47;;;16.19;91.19
9423;BME280;4750;49.506;10.400;2022-10-15T09:59:32;97536.78;;;16.27;90.96
9423;BME280;4750;49.506;10.400;2022-10-15T10:02:21;97532.50;;;16.47;90.83
9423;BME280;4750;49.506;10.400;2022-10-15T10:05:26;97559.75;;;16.74;90.51
9423;BME280;4750;49.506;10.400;2022-10-15T10:08:23;97545.81;;;16.78;90.24
9423;BME280;4750;49.506;10.400;2022-10-15T10:11:10;97553.88;;;16.82;89.67
9423;BME280;4750;49.506;10.400;2022-10-15T10:13:56;97556.66;;;16.70;88.92
9423;BME280;4750;49.506;10.400;2022-10-15T10:17:06;97552.50;;;16.61;88.95
9423;BME280;4750;49.506;10.400;2022-10-15T10:22:54;97570.66;;;16.46;88.74
9423;BME280;4750;49.506;10.400;2022-10-15T10:25:42;97569.81;;;16.34;88.53
9423;BME280;4750;49.506;10.400;2022-10-15T10:28:38;97592.66;;;16.58;88.12
9423;BME280;4750;49.506;10.400;2022-10-15T10:31:28;97586.25;;;16.57;87.31
9423;BME280;4750;49.506;10.400;2022-10-15T10:34:15;97587.00;;;16.79;86.90
9423;BME280;4750;49.506;10.400;2022-10-15T10:37:03;97589.19;;;16.91;86.29
9423;BME280;4750;49.506;10.400;2022-10-15T10:39:53;97594.44;;;17.06;85.59
9423;BME280;4750;49.506;10.400;2022-10-15T10:42:37;97571.47;;;16.80;84.83
9423;BME280;4750;49.506;10.400;2022-10-15T10:45:24;97581.13;;;16.65;84.17
9423;BME280;4750;49.506;10.400;2022-10-15T10:48:21;97596.72;;;16.76;83.94
9423;BME280;4750;49.506;10.400;2022-10-15T10:53:56;97603.22;;;16.89;83.41
9423;BME280;4750;49.506;10.400;2022-10-15T10:56:43;97598.44;;;16.91;83.00
9423;BME280;4750;49.506;10.400;2022-10-15T10:59:33;97571.44;;;16.90;83.23
9423;BME280;4750;49.506;10.400;2022-10-15T11:02:19;97600.50;;;17.12;82.62
9423;BME280;4750;49.506;10.400;2022-10-15T11:05:03;97586.22;;;16.89;82.42
9423;BME280;4750;49.506;10.400;2022-10-15T11:11:11;97585.78;;;16.82;82.91
9423;BME280;4750;49.506;10.400;2022-10-15T11:14:03;97577.16;;;16.80;83.88
9423;BME280;4750;49.506;10.400;2022-10-15T11:23:03;97602.63;;;17.24;84.62
9423;BME280;4750;49.506;10.400;2022-10-15T11:26:46;97592.31;;;17.07;83.87
9423;BME280;4750;49.506;10.400;2022-10-15T11:29:14;97599.16;;;17.13;83.47
9423;BME280;4750;49.506;10.400;2022-10-15T11:32:15;97592.16;;;16.93;83.63
9423;BME280;4750;49.506;10.400;2022-10-15T11:38:18;97604.84;;;17.25;83.96
9423;BME280;4750;49.506;10.400;2022-10-15T11:44:51;97603.50;;;17.26;84.28
9423;BME280;4750;49.506;10.400;2022-10-15T11:47:45;97600.84;;;17.40;84.48
9423;BME280;4750;49.506;10.400;2022-10-15T11:50:45;97568.34;;;17.65;84.18
9423;BME280;4750;49.506;10.400;2022-10-15T11:53:36;97593.94;;;17.88;82.69
9423;BME280;4750;49.506;10.400;2022-10-15T11:56:33;97563.78;;;17.71;82.11
9423;BME280;4750;49.506;10.400;2022-10-15T11:59:39;97581.41;;;18.15;82.46
9423;BME280;4750;49.506;10.400;2022-10-15T12:02:34;97590.66;;;18.04;81.69
9423;BME280;4750;49.506;10.400;2022-10-15T12:05:34;97583.81;;;17.73;81.17
9423;BME280;4750;49.506;10.400;2022-10-15T12:08:23;97584.47;;;17.50;81.49
9423;BME280;4750;49.506;10.400;2022-10-15T12:11:27;97568.88;;;17.28;82.55
9423;BME280;4750;49.506;10.400;2022-10-15T12:14:27;97576.13;;;17.19;83.74
9423;BME280;4750;49.506;10.400;2022-10-15T12:17:38;97584.13;;;16.89;85.21
9423;BME280;4750;49.506;10.400;2022-10-15T12:20:25;97558.66;;;16.58;87.04
9423;BME280;4750;49.506;10.400;2022-10-15T12:23:39;97553.44;;;16.32;88.51
9423;BME280;4750;49.506;10.400;2022-10-15T12:29:19;97568.59;;;16.90;91.18
9423;BME280;4750;49.506;10.400;2022-10-15T12:32:03;97550.09;;;16.89;91.51
9423;BME280;4750;49.506;10.400;2022-10-15T12:34:56;97556.22;;;17.07;91.40
9423;BME280;4750;49.506;10.400;2022-10-15T12:37:46;97568.94;;;17.18;90.73
9423;BME280;4750;49.506;10.400;2022-10-15T12:40:31;97559.00;;;17.29;90.22
9423;BME280;4750;49.506;10.400;2022-10-15T12:43:16;97580.63;;;17.12;88.44
9423;BME280;4750;49.506;10.400;2022-10-15T12:46:05;97547.38;;;17.13;87.76
9423;BME280;4750;49.506;10.400;2022-10-15T12:48:51;97567.97;;;17.70;87.31
9423;BME280;4750;49.506;10.400;2022-10-15T12:51:40;97555.38;;;17.50;85.68
9423;BME280;4750;49.506;10.400;2022-10-15T12:54:43;97565.72;;;17.45;85.01
9423;BME280;4750;49.506;10.400;2022-10-15T13:00:32;97542.97;;;17.33;85.40
9423;BME280;4750;49.506;10.400;2022-10-15T13:03:23;97549.47;;;17.58;85.25
9423;BME280;4750;49.506;10.400;2022-10-15T13:09:17;97556.88;;;17.51;84.33
9423;BME280;4750;49.506;10.400;2022-10-15T13:12:04;97545.63;;;17.41;83.81
9423;BME280;4750;49.506;10.400;2022-10-15T13:14:54;97561.84;;;17.86;83.83
9423;BME280;4750;49.506;10.400;2022-10-15T13:17:39;97554.47;;;18.04;82.75
9423;BME280;4750;49.506;10.400;2022-10-15T13:20:41;97558.91;;;18.19;81.39
9423;BME280;4750;49.506;10.400;2022-10-15T13:23:31;97555.47;;;18.09;80.76
9423;BME280;4750;49.506;10.400;2022-10-15T13:26:34;97560.16;;;17.93;80.37
9423;BME280;4750;49.506;10.400;2022-10-15T13:29:21;97556.94;;;18.10;80.31
9423;BME280;4750;49.506;10.400;2022-10-15T13:32:12;97531.50;;;18.36;79.52
9423;BME280;4750;49.506;10.400;2022-10-15T13:34:59;97514.03;;;18.53;78.40
9423;BME280;4750;49.506;10.400;2022-10-15T13:37:44;97528.91;;;18.78;77.17
9423;BME280;4750;49.506;10.400;2022-10-15T13:40:30;97524.59;;;18.88;76.56
9423;BME280;4750;49.506;10.400;2022-10-15T13:43:16;97542.00;;;19.20;75.86
9423;BME280;4750;49.506;10.400;2022-10-15T13:46:00;97522.38;;;19.13;74.83
9423;BME280;4750;49.506;10.400;2022-10-15T13:48:45;97519.31;;;19.08;74.06
9423;BME280;4750;49.506;10.400;2022-10-15T13:51:33;97509.13;;;19.17;73.50
9423;BME280;4750;49.506;10.400;2022-10-15T13:54:27;97532.25;;;18.86;73.41
9423;BME280;4750;49.506;10.400;2022-10-15T13:57:14;97552.47;;;18.54;74.19
9423;BME280;4750;49.506;10.400;2022-10-15T14:00:00;97532.50;;;18.29;75.72
9423;BME280;4750;49.506;10.400;2022-10-15T14:03:21;97545.28;;;18.53;76.77
9423;BME280;4750;49.506;10.400;2022-10-15T14:06:20;97526.53;;;18.36;76.82
9423;BME280;4750;49.506;10.400;2022-10-15T14:09:18;97514.97;;;18.09;77.37
9423;BME280;4750;49.506;10.400;2022-10-15T14:12:06;97548.41;;;18.10;77.88
9423;BME280;4750;49.506;10.400;2022-10-15T14:14:50;97529.50;;;17.79;78.20
9423;BME280;4750;49.506;10.400;2022-10-15T14:17:34;97520.09;;;17.65;78.60
9423;BME280;4750;49.506;10.400;2022-10-15T14:20:20;97537.75;;;17.63;79.23
9423;BME280;4750;49.506;10.400;2022-10-15T14:23:04;97539.31;;;17.43;79.47
9423;BME280;4750;49.506;10.400;2022-10-15T14:25:57;97536.47;;;17.43;80.01
9423;BME280;4750;49.506;10.400;2022-10-15T14:28:48;97534.63;;;17.47;80.46
9423;BME280;4750;49.506;10.400;2022-10-15T14:31:38;97495.56;;;17.12;80.81
9423;BME280;4750;49.506;10.400;2022-10-15T14:34:28;97558.03;;;17.36;81.01
9423;BME280;4750;49.506;10.400;2022-10-15T14:37:38;97541.72;;;17.25;81.56
9423;BME280;4750;49.506;10.400;2022-10-15T14:40:25;97549.41;;;17.34;81.61
9423;BME280;4750;49.506;10.400;2022-10-15T14:43:17;97521.88;;;17.25;81.76
9423;BME280;4750;49.506;10.400;2022-10-15T14:46:04;97565.13;;;17.59;81.72
9423;BME280;4750;49.506;10.400;2022-10-15T14:48:49;97539.34;;;17.54;81.68
9423;BME280;4750;49.506;10.400;2022-10-15T14:51:33;97527.22;;;17.42;81.33
9423;BME280;4750;49.506;10.400;2022-10-15T14:54:19;97516.47;;;17.29;81.03
9423;BME280;4750;49.506;10.400;2022-10-15T14:57:15;97537.25;;;17.55;81.32
9423;BME280;4750;49.506;10.400;2022-10-15T15:00:00;97547.28;;;17.68;80.99
9423;BME280;4750;49.506;10.400;2022-10-15T15:02:45;97540.59;;;17.63;81.02
9423;BME280;4750;49.506;10.400;2022-10-15T15:05:42;97550.47;;;17.62;81.00
9423;BME280;4750;49.506;10.400;2022-10-15T15:08:26;97549.44;;;17.46;81.14
9423;BME280;4750;49.506;10.400;2022-10-15T15:11:14;97537.31;;;17.33;81.76
9423;BME280;4750;49.506;10.400;2022-10-15T15:14:00;97531.34;;;17.17;82.12
9423;BME280;4750;49.506;10.400;2022-10-15T15:16:46;97531.72;;;17.24;82.44
9423;BME280;4750;49.506;10.400;2022-10-15T15:19:30;97541.22;;;17.16;82.64
9423;BME280;4750;49.506;10.400;2022-10-15T15:22:17;97520.72;;;16.84;82.23
9423;BME280;4750;49.506;10.400;2022-10-15T15:25:26;97565.75;;;17.24;82.21
9423;BME280;4750;49.506;10.400;2022-10-15T15:28:13;97565.66;;;17.21;82.11
9423;BME280;4750;49.506;10.400;2022-10-15T15:30:59;97569.09;;;17.20;82.07
9423;BME280;4750;49.506;10.400;2022-10-15T15:33:44;97560.63;;;16.98;81.91
9423;BME280;4750;49.506;10.400;2022-10-15T15:36:28;97556.91;;;16.96;82.19
9423;BME280;4750;49.506;10.400;2022-10-15T15:39:12;97549.38;;;16.89;82.32
9423;BME280;4750;49.506;10.400;2022-10-15T15:41:56;97568.00;;;16.92;82.70
9423;BME280;4750;49.506;10.400;2022-10-15T15:44:40;97558.31;;;16.85;82.83
9423;BME280;4750;49.506;10.400;2022-10-15T15:47:25;97566.38;;;16.89;82.99
9423;BME280;4750;49.506;10.400;2022-10-15T15:50:09;97596.84;;;16.78;83.65
9423;BME280;4750;49.506;10.400;2022-10-15T15:52:53;97589.00;;;16.67;84.01
9423;BME280;4750;49.506;10.400;2022-10-15T15:55:38;97600.09;;;16.63;84.65
9423;BME280;4750;49.506;10.400;2022-10-15T15:58:22;97594.59;;;16.55;84.45